Disclaimer

Please do not use the information listed here in-flight or in-navigation, as they are not provided to us by the airports but are provided by volunteers, so they might be outdated.

Search


Regions


Airport information page

Radio informations:
Tower (TWR) - 122.1 MHz
OPS - 370.075 MHz
Ground (GND) - 122.1 MHz
DEP - 126.5 MHz
Automatic Terminal Information Service (ATIS) - 369.25 MHz

Airport informations:
Latitude: 56° 22' 22.40" N
Longitude: 002° 52' 06.40" W
Elevation: 38 feet - 12 meters
Operating hours: Remarks
Operating agency: Military
Timezone: UTC 0(+1DT) - Last Sunday in March to last Sunday in October
Fuel: N/A

Runway information:
04/22 - 4803 x 151 feet< - >1464 x 46 meters
09/27 - 8491 x 150 feet< - >2588 x 46 meters

Recent METARs:
EGQL 191550Z 10018KT 9999 OVC031 08/03 Q1029 BLU
EGQL 191650Z 11014KT 9999 SCT027 BKN040 08/03 Q1029 BLU
EGQL 191650Z 11014KT 9999 SCT027 BKN040 08/03 Q1029 BLU

Airport on the map: